createdAt,value
2018-07-07T00:00:35.578Z,2.53
2018-07-07T00:03:04.209Z,2.70
2018-07-07T00:05:32.587Z,2.00
2018-07-07T00:08:00.975Z,2.27
2018-07-07T00:10:29.683Z,1.73
2018-07-07T00:12:58.374Z,2.10
2018-07-07T00:15:26.724Z,2.03
2018-07-07T00:17:55.354Z,2.03
2018-07-07T00:20:23.885Z,1.77
2018-07-07T00:22:52.613Z,1.70
2018-07-07T00:25:23.095Z,1.80
2018-07-07T00:27:52.055Z,1.70
2018-07-07T00:30:20.802Z,1.80
2018-07-07T00:32:49.832Z,1.77
2018-07-07T00:35:18.651Z,1.70
2018-07-07T00:37:47.599Z,1.70
2018-07-07T00:40:16.552Z,1.50
2018-07-07T00:42:44.924Z,1.80
2018-07-07T00:45:14.085Z,1.50
2018-07-07T00:47:43.758Z,1.67
2018-07-07T00:50:13.083Z,1.93
2018-07-07T00:52:42.054Z,2.30
2018-07-07T00:55:11.116Z,1.67
2018-07-07T00:57:39.524Z,1.70
2018-07-07T01:00:08.739Z,1.70
2018-07-07T01:02:38.264Z,2.43
2018-07-07T01:05:07.745Z,2.10
2018-07-07T01:07:36.488Z,1.90
2018-07-07T01:10:06.707Z,1.70
2018-07-07T01:12:35.643Z,2.00
2018-07-07T01:15:04.647Z,1.97
2018-07-07T01:17:34.030Z,2.00
2018-07-07T01:20:03.059Z,2.00
2018-07-07T01:22:33.404Z,1.97
2018-07-07T01:25:03.569Z,2.23
2018-07-07T01:27:32.410Z,2.10
2018-07-07T01:30:01.639Z,2.07
2018-07-07T01:32:30.757Z,1.80
2018-07-07T01:34:59.561Z,1.70
2018-07-07T01:37:28.885Z,2.10
2018-07-07T01:39:59.048Z,1.63
2018-07-07T01:42:28.648Z,1.90
2018-07-07T01:44:57.694Z,1.70
2018-07-07T01:47:27.126Z,1.93
2018-07-07T01:49:56.027Z,1.53
2018-07-07T01:52:24.886Z,2.00
2018-07-07T01:54:53.951Z,1.80
2018-07-07T01:57:22.797Z,2.57
2018-07-07T01:59:51.734Z,1.50
2018-07-07T02:02:20.765Z,1.73
2018-07-07T02:04:49.622Z,1.90
2018-07-07T02:07:18.401Z,1.80
2018-07-07T02:09:47.395Z,1.50
2018-07-07T02:12:16.075Z,1.70
2018-07-07T02:14:44.832Z,1.70
2018-07-07T02:17:14.231Z,1.73
2018-07-07T02:19:44.553Z,2.10
2018-07-07T02:22:17.802Z,1.80
2018-07-07T02:24:48.253Z,1.97
2018-07-07T02:27:16.976Z,1.83
2018-07-07T02:29:45.486Z,2.27
2018-07-07T02:32:14.460Z,1.80
2018-07-07T02:34:43.216Z,1.90
2018-07-07T02:37:12.031Z,1.80
2018-07-07T02:39:41.145Z,1.67
2018-07-07T02:42:10.337Z,1.93
2018-07-07T02:44:38.969Z,2.17
2018-07-07T02:47:08.476Z,1.67
2018-07-07T02:49:37.392Z,2.20
2018-07-07T02:52:06.054Z,1.70
2018-07-07T02:54:35.135Z,1.80
2018-07-07T02:57:04.461Z,1.93
2018-07-07T02:59:33.227Z,1.73
2018-07-07T03:02:02.792Z,1.90
2018-07-07T03:04:31.595Z,1.77
2018-07-07T03:07:00.386Z,2.13
2018-07-07T03:09:29.636Z,1.60
2018-07-07T03:11:58.435Z,2.13
2018-07-07T03:14:27.511Z,1.90
2018-07-07T03:16:56.086Z,1.70
2018-07-07T03:19:25.289Z,1.60
2018-07-07T03:21:54.229Z,2.00
2018-07-07T03:24:23.178Z,1.70
2018-07-07T03:26:51.761Z,1.80
2018-07-07T03:29:21.810Z,2.70
2018-07-07T03:31:51.079Z,2.03
2018-07-07T03:34:19.690Z,2.10
2018-07-07T03:36:48.325Z,2.03
2018-07-07T03:39:17.434Z,2.17
2018-07-07T03:41:45.875Z,2.00
2018-07-07T03:44:14.628Z,2.10
2018-07-07T03:46:43.640Z,1.90
2018-07-07T03:49:12.538Z,1.60
2018-07-07T03:51:41.060Z,1.80
2018-07-07T03:54:09.956Z,2.10
2018-07-07T03:56:38.845Z,2.50
2018-07-07T03:59:07.539Z,2.27
2018-07-07T04:01:36.625Z,2.33
2018-07-07T04:04:06.153Z,2.23
2018-07-07T04:06:34.901Z,2.10
2018-07-07T04:09:03.929Z,2.20
2018-07-07T04:11:32.575Z,2.17
2018-07-07T04:14:01.294Z,1.70
2018-07-07T04:16:30.684Z,1.90
2018-07-07T04:18:59.426Z,1.90
2018-07-07T04:21:28.289Z,2.23
2018-07-07T04:23:57.135Z,1.90
2018-07-07T04:26:26.291Z,2.37
2018-07-07T04:28:54.920Z,2.23
2018-07-07T04:31:24.794Z,1.50
2018-07-07T04:33:54.150Z,2.23
2018-07-07T04:36:22.761Z,1.70
2018-07-07T04:38:52.637Z,1.70
2018-07-07T04:41:21.735Z,2.00
2018-07-07T04:43:50.588Z,2.47
2018-07-07T04:46:19.159Z,2.13
2018-07-07T04:48:48.302Z,2.53
2018-07-07T04:51:17.513Z,2.30
2018-07-07T04:53:46.318Z,2.70
2018-07-07T04:56:16.183Z,2.17
2018-07-07T04:58:44.818Z,2.60
2018-07-07T05:01:14.086Z,2.60
2018-07-07T05:03:42.986Z,2.40
2018-07-07T05:06:11.842Z,2.27
2018-07-07T05:08:40.733Z,2.43
2018-07-07T05:11:09.952Z,2.50
2018-07-07T05:13:38.736Z,2.00
2018-07-07T05:16:07.433Z,1.87
2018-07-07T05:18:36.685Z,2.33
2018-07-07T05:21:05.415Z,2.10
2018-07-07T05:23:34.714Z,2.00
2018-07-07T05:26:05.180Z,2.00
2018-07-07T05:28:34.257Z,1.83
2018-07-07T05:31:04.110Z,2.00
2018-07-07T05:33:34.594Z,2.43
2018-07-07T05:36:05.000Z,2.00
2018-07-07T05:38:34.033Z,2.00
2018-07-07T05:41:02.957Z,3.07
2018-07-07T05:43:32.385Z,2.67
2018-07-07T05:46:01.541Z,2.07
2018-07-07T05:48:30.550Z,2.70
2018-07-07T05:50:59.982Z,1.93
2018-07-07T05:53:29.329Z,1.87
2018-07-07T05:55:58.131Z,2.03
2018-07-07T05:58:26.553Z,2.47
2018-07-07T06:00:55.450Z,2.00
2018-07-07T06:03:25.042Z,1.70
2018-07-07T06:05:54.168Z,1.20
2018-07-07T06:08:23.037Z,1.53
2018-07-07T06:10:52.397Z,1.63
2018-07-07T06:13:21.626Z,1.40
2018-07-07T06:15:50.719Z,1.87
2018-07-07T06:18:19.762Z,1.93
2018-07-07T06:20:48.367Z,2.30
2018-07-07T06:23:17.076Z,1.20
2018-07-07T06:25:46.480Z,1.50
2018-07-07T06:28:15.415Z,1.57
2018-07-07T06:30:44.844Z,1.50
2018-07-07T06:33:14.994Z,1.47
2018-07-07T06:35:43.599Z,1.43
2018-07-07T06:38:12.424Z,1.30
2018-07-07T06:40:41.579Z,1.53
2018-07-07T06:43:10.089Z,1.53
2018-07-07T06:45:38.928Z,1.80
2018-07-07T06:48:08.512Z,1.60
2018-07-07T06:50:37.160Z,1.20
2018-07-07T06:53:06.631Z,2.27
2018-07-07T06:55:36.151Z,1.50
2018-07-07T06:58:05.120Z,1.70
2018-07-07T07:00:34.272Z,1.30
2018-07-07T07:03:03.549Z,1.20
2018-07-07T07:05:32.278Z,1.10
2018-07-07T07:08:02.175Z,1.50
2018-07-07T07:10:30.673Z,1.40
2018-07-07T07:12:59.186Z,1.30
2018-07-07T07:15:28.383Z,1.20
2018-07-07T07:17:58.299Z,1.50
2018-07-07T07:20:27.050Z,1.20
2018-07-07T07:22:58.499Z,1.00
2018-07-07T07:25:29.512Z,1.47
2018-07-07T07:27:58.094Z,1.40
2018-07-07T07:30:26.835Z,1.40
2018-07-07T07:32:55.629Z,1.80
2018-07-07T07:35:25.241Z,1.80
2018-07-07T07:37:56.081Z,1.60
2018-07-07T07:40:25.945Z,1.40
2018-07-07T07:42:55.133Z,1.40
2018-07-07T07:45:24.880Z,1.20
2018-07-07T07:47:53.824Z,1.57
2018-07-07T07:50:23.444Z,1.40
2018-07-07T07:52:51.894Z,1.37
2018-07-07T07:55:20.533Z,1.40
2018-07-07T07:57:50.137Z,1.30
2018-07-07T08:00:20.641Z,1.13
2018-07-07T08:02:49.384Z,1.30
2018-07-07T08:05:19.654Z,1.20
2018-07-07T08:07:49.800Z,1.13
2018-07-07T08:10:19.633Z,1.07
2018-07-07T08:12:50.768Z,1.10
2018-07-07T08:15:24.202Z,1.10
2018-07-07T08:17:53.181Z,1.10
2018-07-07T08:20:22.142Z,1.10
2018-07-07T08:22:51.095Z,1.30
2018-07-07T08:25:27.948Z,1.00
2018-07-07T08:27:59.687Z,1.57
2018-07-07T08:30:30.294Z,1.17
2018-07-07T08:33:00.938Z,1.50
2018-07-07T08:35:31.340Z,1.10
2018-07-07T08:38:03.334Z,1.30
2018-07-07T08:40:32.836Z,1.20
2018-07-07T08:43:02.125Z,1.53
2018-07-07T08:45:34.428Z,1.17
2018-07-07T08:48:03.961Z,1.10
2018-07-07T08:50:33.954Z,1.57
2018-07-07T08:53:03.839Z,1.30
2018-07-07T08:55:33.663Z,1.20
2018-07-07T08:58:04.671Z,1.43
2018-07-07T09:00:33.989Z,1.40
2018-07-07T09:03:04.760Z,1.10
2018-07-07T09:05:37.852Z,1.47
2018-07-07T09:08:07.518Z,1.70
2018-07-07T09:10:37.898Z,1.10
2018-07-07T09:13:11.930Z,1.30
2018-07-07T09:15:41.207Z,1.17
2018-07-07T09:18:13.361Z,1.20
2018-07-07T09:20:42.070Z,1.73
2018-07-07T09:23:42.757Z,1.37
2018-07-07T09:26:18.641Z,1.23
2018-07-07T09:28:47.169Z,1.20
2018-07-07T09:31:19.722Z,1.20
2018-07-07T09:33:55.570Z,1.13
2018-07-07T09:36:30.191Z,1.30
2018-07-07T09:39:04.080Z,1.33
2018-07-07T09:41:33.648Z,1.53
2018-07-07T09:44:02.794Z,1.03
2018-07-07T09:46:32.851Z,1.40
2018-07-07T09:49:06.509Z,1.20
2018-07-07T09:51:35.362Z,1.53
2018-07-07T09:54:08.332Z,1.57
2018-07-07T09:56:42.072Z,1.27
2018-07-07T09:59:10.920Z,1.60
2018-07-07T10:01:43.334Z,1.40
2018-07-07T10:04:12.617Z,1.40
2018-07-07T10:06:41.241Z,1.67
2018-07-07T10:09:10.104Z,1.30
2018-07-07T10:11:42.853Z,1.23
2018-07-07T10:14:16.044Z,1.83
2018-07-07T10:16:46.519Z,1.67
2018-07-07T10:19:15.529Z,1.20
2018-07-07T10:21:45.542Z,1.23
2018-07-07T10:24:14.482Z,1.40
2018-07-07T10:26:44.597Z,1.50
2018-07-07T10:29:13.098Z,1.47
2018-07-07T10:31:44.438Z,2.00
2018-07-07T10:34:15.580Z,1.50
2018-07-07T10:36:47.144Z,1.03
2018-07-07T10:39:20.713Z,1.43
2018-07-07T10:41:49.575Z,1.70
2018-07-07T10:44:19.071Z,1.30
2018-07-07T10:46:48.077Z,1.67
2018-07-07T10:49:17.544Z,1.80
2018-07-07T10:51:46.857Z,1.57
2018-07-07T10:54:16.412Z,1.40
2018-07-07T10:56:45.443Z,1.70
2018-07-07T10:59:13.944Z,2.20
2018-07-07T11:01:43.166Z,1.60
2018-07-07T11:04:13.150Z,1.70
2018-07-07T11:06:41.846Z,1.70
2018-07-07T11:09:12.233Z,1.70
2018-07-07T11:11:40.970Z,1.50
2018-07-07T11:14:10.259Z,1.50
2018-07-07T11:16:39.229Z,1.90
2018-07-07T11:19:09.825Z,1.37
2018-07-07T11:21:38.614Z,1.60
2018-07-07T11:24:07.497Z,1.60
2018-07-07T11:26:36.434Z,1.60
2018-07-07T11:29:05.336Z,2.07
2018-07-07T11:31:34.238Z,1.60
2018-07-07T11:34:04.627Z,1.70
2018-07-07T11:36:35.910Z,2.03
2018-07-07T11:39:06.402Z,1.77
2018-07-07T11:41:36.229Z,1.70
2018-07-07T11:44:05.086Z,1.33
2018-07-07T11:46:33.883Z,1.30
2018-07-07T11:49:04.412Z,2.10
2018-07-07T11:51:33.076Z,1.90
2018-07-07T11:54:02.573Z,1.43
2018-07-07T11:56:31.377Z,1.47
2018-07-07T11:59:01.399Z,1.67
2018-07-07T12:01:29.948Z,2.33
2018-07-07T12:03:59.215Z,1.60
2018-07-07T12:06:28.206Z,1.63
2018-07-07T12:08:56.833Z,1.70
2018-07-07T12:11:26.201Z,1.90
2018-07-07T12:13:56.396Z,1.60
2018-07-07T12:16:25.929Z,1.47
2018-07-07T12:18:55.793Z,1.77
2018-07-07T12:21:24.365Z,1.70
2018-07-07T12:23:54.508Z,1.90
2018-07-07T12:26:23.384Z,1.80
2018-07-07T12:28:52.241Z,1.60
2018-07-07T12:31:21.617Z,1.57
2018-07-07T12:33:50.073Z,1.87
2018-07-07T12:36:18.475Z,2.00
2018-07-07T12:38:46.972Z,1.77
2018-07-07T12:41:15.365Z,1.67
2018-07-07T12:43:44.295Z,1.40
2018-07-07T12:46:12.618Z,1.77
2018-07-07T12:48:41.135Z,1.80
2018-07-07T12:51:11.032Z,1.40
2018-07-07T12:53:39.885Z,1.83
2018-07-07T12:56:09.928Z,1.63
2018-07-07T12:58:38.887Z,1.40
2018-07-07T13:01:08.352Z,1.40
2018-07-07T13:03:36.964Z,1.77
2018-07-07T13:06:05.674Z,1.53
2018-07-07T13:08:34.383Z,1.50
2018-07-07T13:11:03.181Z,1.43
2018-07-07T13:13:33.199Z,1.40
2018-07-07T13:16:01.964Z,1.70
2018-07-07T13:18:31.198Z,1.50
2018-07-07T13:21:02.333Z,2.07
2018-07-07T13:23:31.841Z,1.30
2018-07-07T13:26:00.756Z,1.60
2018-07-07T13:28:29.700Z,1.70
2018-07-07T13:30:58.352Z,1.63
2018-07-07T13:33:26.805Z,1.70
2018-07-07T13:35:57.131Z,2.10
2018-07-07T13:38:25.653Z,1.37
2018-07-07T13:40:54.577Z,1.80
2018-07-07T13:43:23.745Z,1.47
2018-07-07T13:45:53.267Z,1.60
2018-07-07T13:48:22.084Z,1.33
2018-07-07T13:50:51.035Z,1.67
2018-07-07T13:53:19.583Z,1.87
2018-07-07T13:55:48.274Z,1.60
2018-07-07T13:58:18.213Z,1.67
2018-07-07T14:00:46.911Z,1.57
2018-07-07T14:03:15.407Z,1.70
2018-07-07T14:05:44.239Z,2.13
2018-07-07T14:08:13.195Z,1.60
2018-07-07T14:10:41.578Z,1.40
2018-07-07T14:13:10.283Z,1.70
2018-07-07T14:15:39.144Z,1.70
2018-07-07T14:18:09.614Z,1.83
2018-07-07T14:20:38.477Z,1.80
2018-07-07T14:23:07.817Z,1.60
2018-07-07T14:25:36.294Z,1.77
2018-07-07T14:28:05.060Z,1.60
2018-07-07T14:30:33.936Z,1.90
2018-07-07T14:33:03.464Z,2.10
2018-07-07T14:35:32.223Z,1.67
2018-07-07T14:38:01.622Z,1.63
2018-07-07T14:40:30.128Z,1.87
2018-07-07T14:42:59.539Z,1.40
2018-07-07T14:45:31.100Z,1.80
2018-07-07T14:48:01.450Z,1.63
2018-07-07T14:50:30.412Z,1.77
2018-07-07T14:52:59.325Z,1.73
2018-07-07T14:55:28.596Z,2.83
2018-07-07T14:57:58.052Z,1.33
2018-07-07T15:00:28.233Z,1.43
2018-07-07T15:02:57.619Z,1.30
2018-07-07T15:05:27.547Z,1.80
2018-07-07T15:07:56.193Z,1.87
2018-07-07T15:10:25.166Z,1.87
2018-07-07T15:12:54.573Z,2.07
2018-07-07T15:15:23.987Z,2.33
2018-07-07T15:17:52.423Z,1.63
2018-07-07T15:20:21.094Z,1.90
2018-07-07T15:22:49.588Z,1.87
2018-07-07T15:25:18.070Z,1.90
2018-07-07T15:27:47.199Z,2.33
2018-07-07T15:30:16.454Z,1.60
2018-07-07T15:32:45.781Z,2.13
2018-07-07T15:35:15.144Z,2.10
2018-07-07T15:37:43.683Z,2.30
2018-07-07T15:40:12.580Z,2.20
2018-07-07T15:42:41.995Z,2.10
2018-07-07T15:45:11.836Z,2.20
2018-07-07T15:47:40.954Z,2.10
2018-07-07T15:50:10.085Z,1.73
2018-07-07T15:52:38.647Z,1.73
2018-07-07T15:55:08.292Z,2.30
2018-07-07T15:57:37.697Z,1.67
2018-07-07T16:00:06.669Z,1.63
2018-07-07T16:02:35.186Z,1.70
2018-07-07T16:05:03.912Z,2.03
2018-07-07T16:07:32.513Z,2.50
2018-07-07T16:10:01.901Z,2.40
2018-07-07T16:12:31.660Z,2.20
2018-07-07T16:15:00.360Z,1.80
2018-07-07T16:17:30.713Z,2.20
2018-07-07T16:19:59.883Z,2.43
2018-07-07T16:22:30.265Z,2.83
2018-07-07T16:25:00.237Z,2.30
2018-07-07T16:27:28.846Z,2.20
2018-07-07T16:29:58.031Z,2.03
2018-07-07T16:32:26.705Z,2.03
2018-07-07T16:34:55.591Z,2.70
2018-07-07T16:37:24.583Z,2.30
2018-07-07T16:39:54.901Z,2.70
2018-07-07T16:42:23.610Z,2.93
2018-07-07T16:44:53.087Z,2.60
2018-07-07T16:47:22.413Z,3.10
2018-07-07T16:49:51.457Z,3.00
2018-07-07T16:52:20.830Z,2.73
2018-07-07T16:54:50.765Z,2.80
2018-07-07T16:57:20.161Z,2.57
2018-07-07T16:59:48.982Z,2.30
2018-07-07T17:02:18.851Z,2.63
2018-07-07T17:04:48.392Z,2.40
2018-07-07T17:07:17.272Z,2.17
2018-07-07T17:09:45.921Z,2.70
2018-07-07T17:12:14.516Z,2.60
2018-07-07T17:14:44.468Z,2.20
2018-07-07T17:17:13.456Z,2.10
2018-07-07T17:19:43.879Z,2.20
2018-07-07T17:22:12.945Z,2.70
2018-07-07T17:24:41.801Z,4.23
2018-07-07T17:27:11.033Z,2.93
2018-07-07T17:29:40.226Z,2.40
2018-07-07T17:32:09.254Z,1.93
2018-07-07T17:34:40.996Z,2.50
2018-07-07T17:37:10.579Z,2.43
2018-07-07T17:39:40.143Z,2.03
2018-07-07T17:42:08.920Z,2.03
2018-07-07T17:44:38.914Z,2.27
2018-07-07T17:47:08.169Z,2.17
2018-07-07T17:49:37.433Z,2.13
2018-07-07T17:52:06.123Z,1.53
2018-07-07T17:54:35.037Z,2.13
2018-07-07T17:57:03.597Z,1.90
2018-07-07T17:59:33.055Z,1.50
2018-07-07T18:02:02.955Z,2.70
2018-07-07T18:04:31.509Z,2.10
2018-07-07T18:06:59.913Z,2.10
2018-07-07T18:09:29.242Z,2.70
2018-07-07T18:11:57.830Z,2.77
2018-07-07T18:14:27.044Z,3.00
2018-07-07T18:16:56.458Z,2.27
2018-07-07T18:19:25.893Z,2.17
2018-07-07T18:21:54.883Z,2.10
2018-07-07T18:24:23.632Z,1.90
2018-07-07T18:26:52.308Z,1.70
2018-07-07T18:29:22.255Z,2.10
2018-07-07T18:31:52.519Z,2.47
2018-07-07T18:34:21.219Z,2.90
2018-07-07T18:36:50.130Z,2.47
2018-07-07T18:39:19.339Z,2.20
2018-07-07T18:41:48.238Z,2.07
2018-07-07T18:44:16.801Z,1.87
2018-07-07T18:46:45.808Z,2.10
2018-07-07T18:49:14.592Z,2.13
2018-07-07T18:51:43.556Z,1.90
2018-07-07T18:54:12.516Z,1.60
2018-07-07T18:56:41.845Z,1.93
2018-07-07T18:59:10.624Z,1.70
2018-07-07T19:01:39.467Z,2.20
2018-07-07T19:04:07.924Z,2.03
2018-07-07T19:06:37.138Z,2.20
2018-07-07T19:09:09.052Z,2.40
2018-07-07T19:11:39.089Z,2.20
2018-07-07T19:14:10.131Z,1.80
2018-07-07T19:16:40.051Z,2.40
2018-07-07T19:19:11.492Z,2.10
2018-07-07T19:21:46.400Z,2.27
2018-07-07T19:24:22.761Z,2.13
2018-07-07T19:29:32.583Z,2.60
2018-07-07T19:32:08.309Z,2.60
2018-07-07T19:34:43.246Z,2.30
2018-07-07T19:37:16.624Z,1.80
2018-07-07T19:39:46.791Z,2.30
2018-07-07T19:42:18.073Z,2.30
2018-07-07T19:44:47.043Z,2.20
2018-07-07T19:47:16.396Z,1.97
2018-07-07T19:49:45.454Z,2.07
2018-07-07T19:52:14.705Z,2.00
2018-07-07T19:54:44.574Z,1.47
2018-07-07T19:57:14.190Z,1.97
2018-07-07T19:59:43.227Z,1.90
2018-07-07T20:02:12.987Z,1.70
2018-07-07T20:04:42.486Z,2.00
2018-07-07T20:07:12.187Z,2.07
2018-07-07T20:09:41.898Z,1.93
2018-07-07T20:12:11.580Z,2.47
2018-07-07T20:14:42.679Z,2.17
2018-07-07T20:17:16.369Z,2.10
2018-07-07T20:20:58.632Z,2.33
2018-07-07T20:23:30.464Z,1.90
2018-07-07T20:26:07.461Z,2.40
2018-07-07T20:28:42.126Z,2.00
2018-07-07T20:31:13.725Z,1.90
2018-07-07T20:33:42.822Z,2.13
2018-07-07T20:36:12.320Z,1.80
2018-07-07T20:38:40.803Z,1.80
2018-07-07T20:41:09.212Z,2.10
2018-07-07T20:43:38.785Z,2.00
2018-07-07T20:46:07.170Z,2.20
2018-07-07T20:48:35.995Z,2.20
2018-07-07T20:51:07.028Z,2.50
2018-07-07T20:53:37.373Z,1.83
2018-07-07T20:56:06.312Z,1.73
2018-07-07T20:58:34.962Z,1.70
2018-07-07T21:01:03.361Z,2.20
2018-07-07T21:03:32.556Z,2.70
2018-07-07T21:06:01.870Z,1.90
2018-07-07T21:08:30.319Z,2.27
2018-07-07T21:11:00.799Z,1.97
2018-07-07T21:13:29.464Z,2.30
2018-07-07T21:15:59.409Z,2.37
2018-07-07T21:18:27.904Z,1.90
2018-07-07T21:20:57.078Z,2.50
2018-07-07T21:23:26.406Z,1.90
2018-07-07T21:25:54.828Z,2.10
2018-07-07T21:28:23.526Z,1.70
2018-07-07T21:30:53.024Z,2.20
2018-07-07T21:33:30.246Z,2.20
2018-07-07T21:35:59.790Z,2.43
2018-07-07T21:38:29.971Z,2.13
2018-07-07T21:40:58.509Z,2.00
2018-07-07T21:43:27.652Z,2.00
2018-07-07T21:46:00.060Z,2.30
2018-07-07T21:48:29.274Z,2.23
2018-07-07T21:51:00.928Z,2.03
2018-07-07T21:53:33.467Z,2.27
2018-07-07T21:56:02.505Z,2.60
2018-07-07T21:58:33.912Z,2.80
2018-07-07T22:01:19.468Z,2.97
2018-07-07T22:03:52.797Z,3.30
2018-07-07T22:06:27.968Z,2.90
2018-07-07T22:08:59.020Z,2.10
2018-07-07T22:11:31.445Z,2.27
2018-07-07T22:14:20.640Z,1.90
2018-07-07T22:16:49.519Z,2.37
2018-07-07T22:19:18.202Z,2.37
2018-07-07T22:21:52.226Z,1.83
2018-07-07T22:24:21.078Z,2.07
2018-07-07T22:26:52.237Z,2.50
2018-07-07T22:29:21.367Z,2.43
2018-07-07T22:31:51.778Z,2.50
2018-07-07T22:34:22.928Z,2.20
2018-07-07T22:36:53.241Z,2.60
2018-07-07T22:39:26.207Z,2.13
2018-07-07T22:42:00.747Z,2.40
2018-07-07T22:44:29.646Z,2.23
2018-07-07T22:46:59.937Z,2.20
2018-07-07T22:49:29.141Z,2.30
2018-07-07T22:51:58.055Z,3.23
2018-07-07T22:54:26.440Z,2.30
2018-07-07T22:56:56.743Z,2.10
2018-07-07T22:59:25.391Z,3.00
2018-07-07T23:01:56.606Z,2.33
2018-07-07T23:04:25.479Z,2.13
2018-07-07T23:06:55.888Z,2.30
2018-07-07T23:09:27.499Z,2.33
2018-07-07T23:11:59.605Z,1.87
2018-07-07T23:14:29.685Z,2.77
2018-07-07T23:17:05.137Z,2.20
2018-07-07T23:19:34.878Z,2.73
2018-07-07T23:22:05.308Z,2.27
2018-07-07T23:24:35.424Z,2.17
2018-07-07T23:27:05.900Z,3.00
2018-07-07T23:29:37.521Z,2.23
2018-07-07T23:32:06.485Z,1.93
2018-07-07T23:34:35.611Z,2.27
2018-07-07T23:37:04.584Z,2.47
2018-07-07T23:39:33.515Z,2.10
2018-07-07T23:42:03.001Z,2.43
2018-07-07T23:44:31.874Z,2.43
2018-07-07T23:47:01.757Z,2.70
2018-07-07T23:49:30.862Z,2.33
2018-07-07T23:52:01.318Z,2.30
2018-07-07T23:54:30.013Z,2.30
2018-07-07T23:56:58.917Z,2.70
2018-07-07T23:59:28.520Z,2.27
